Terminal Aerodrome Forecast
Issued by NWS

Home | Current Version | Previous Version | Text Only | Print | Product List | Glossary On
Versions: 1 2 3 4 5 6 7 8 9 10 11 12 13 14 15 16
000
FTUS42 TJSJ 061700 RRA
TAFJSJ
TAF
TJSJ 061740Z 0618/0718 07017G23KT P6SM FEW035 SCT060
     FM062200 08007KT P6SM VCSH FEW030 SCT070
     FM071300 08015G23KT P6SM FEW025 SCT070=

USA.gov is the U.S. government's official web portal to all federal, state and local government web resources and services.